Nearby METAR Reports

 

KTEB - Teterboro, New Jersey, USA
Distance from station: ENE 2mi, 4km
Updated: 04/26/2017 8:51pm
Mist, Overcast
Mist, Overcast
 Wind from calm
Wind: Calm
Temperature: 61°F , 16°C
Dew Point: 57°F , 14°C
Humidity: 88%
Barometer: 29.80 inHg , 1009.1 hPa
Summary: Mist
Clouds: Overcast
Visibility: 5 miles , 8 km
Cloud details: Overcast 1400 ft
2017/04/27 00:51 KTEB 270051Z 00000KT 5SM BR OVC014 16/14 A2980 RMK AO2 SLP090 T01610144
KNYC - Nyc/Central Park, New York, USA
Distance from station: SE 8mi, 13km
Updated: 04/26/2017 8:51pm
Mist, Overcast
Mist, Overcast
 Wind from calm
Wind: Calm
Temperature: 59°F , 15°C
Dew Point: 57°F , 14°C
Humidity: 94%
Barometer: 29.83 inHg , 1010.2 hPa
Summary: Mist
Clouds: Overcast
Visibility: 5 miles , 8 km
Cloud details: Overcast 1800 ft
2017/04/27 00:51 KNYC 270051Z AUTO 00000KT 5SM BR OVC018 15/14 A2983 RMK AO2 SLP093 T01500144 $
 
KCDW - Caldwell, New Jersey, USA
Distance from station: WNW 10mi, 17km
Updated: 04/26/2017 8:53pm
Overcast
Overcast
 Wind from calm
Wind: Calm
Temperature: 61°F , 16°C
Dew Point: 57°F , 14°C
Humidity: 88%
Barometer: 29.81 inHg , 1009.5 hPa
Clouds: Overcast
Visibility: 10 miles , 16 km
Cloud details: Overcast 1500 ft
2017/04/27 00:53 KCDW 270053Z AUTO 00000KT 10SM OVC015 16/14 A2981 RMK AO2 SLP101 T01560139 TSNO
KLGA - Nyc/La Guardia, New York, USA
Distance from station: ESE 12mi, 19km
Updated: 04/26/2017 9:09pm
Overcast
Overcast
 Wind from ENE
Wind: ENE 5 mph , 7 km/h
Temperature: 61°F , 16°C
Dew Point: 57°F , 14°C
Humidity: 88%
Barometer: 29.82 inHg , 1009.8 hPa
Clouds: Overcast
Visibility: 10 miles , 16 km
Cloud details: Overcast 1400 ft
2017/04/27 01:09 KLGA 270109Z 06004KT 10SM OVC014 16/14 A2982 RMK AO2 VIS 2 1/2 R22 SW T01610139
 
KEWR - Newark, New Jersey, USA
Distance from station: SSW 12mi, 20km
Updated: 04/26/2017 8:51pm
Overcast
Overcast
 Wind from ESE
Wind: ESE 3 mph , 6 km/h
Temperature: 61°F , 16°C
Dew Point: 57°F , 14°C
Humidity: 88%
Barometer: 29.81 inHg , 1009.5 hPa
Clouds: Overcast
Visibility: 7 miles , 11 km
Cloud details: Few Clouds 900 ft
Overcast 1500 ft
2017/04/27 00:51 KEWR 270051Z 12003KT 7SM FEW009 OVC015 16/14 A2981 RMK AO2 SLP093 T01560144 $
KMMU - Morristown Muni, New Jersey, USA
Distance from station: WSW 18mi, 29km
Updated: 04/26/2017 8:50pm
Mostly cloudy
Mostly cloudy
 Wind from calm
Wind: Calm
Temperature: 59°F , 15°C
Dew Point: 57°F , 14°C
Humidity: 94%
Barometer: 29.82 inHg , 1009.8 hPa
Clouds: Mostly cloudy
Visibility: 10 miles , 16 km
Cloud details: Mostly cloudy 1700 ft
Mostly cloudy 2400 ft
2017/04/27 00:50 KMMU 270050Z 00000KT 10SM BKN017 BKN024 15/14 A2982
 
KJFK - Nyc/Jfk Arpt, New York, USA
Distance from station: SE 23mi, 36km
Updated: 04/26/2017 8:51pm
Overcast
Overcast
 Wind from N
Wind: N 5 mph , 7 km/h
Temperature: 61°F , 16°C
Dew Point: 57°F , 14°C
Humidity: 88%
Barometer: 29.82 inHg , 1009.8 hPa
Clouds: Overcast
Visibility: 10 miles , 16 km
Cloud details: Overcast 1300 ft
2017/04/27 00:51 KJFK 270051Z 36004KT 10SM OVC013 16/14 A2982 RMK AO2 SLP096 T01560144
KHPN - White Plains, New York, USA
Distance from station: NE 25mi, 40km
Updated: 04/26/2017 8:56pm
Overcast
Overcast
 Wind from calm
Wind: Calm
Temperature: 59°F , 15°C
Dew Point: 55°F , 13°C
Humidity: 88%
Barometer: 29.81 inHg , 1009.5 hPa
Clouds: Overcast
Visibility: 10 miles , 16 km
Cloud details: Overcast 1200 ft
2017/04/27 00:56 KHPN 270056Z 00000KT 10SM OVC012 15/13 A2981 RMK AO2 SLP093 T01500133
 
KSMQ - Somerville, New Jersey, USA
Distance from station: WSW 34mi, 55km
Updated: 04/26/2017 8:53pm
Overcast
Overcast
 Wind from calm
Wind: Calm
Temperature: 61°F , 16°C
Dew Point: 57°F , 14°C
Humidity: 88%
Barometer: 29.80 inHg , 1009.1 hPa
Clouds: Overcast
Visibility: 10 miles , 16 km
Cloud details: Overcast 2200 ft
2017/04/27 00:53 KSMQ 270053Z AUTO 00000KT 10SM OVC022 16/14 A2980 RMK AO2 SLP090 T01610144
K12N - Andover, New Jersey, USA
Distance from station: WNW 36mi, 57km
Updated: 04/26/2017 8:54pm

 Wind from calm
Wind: Calm
Temperature: 57°F , 14°C
Dew Point: 55°F , 13°C
Humidity: 94%
Barometer: 29.82 inHg , 1009.8 hPa
2017/04/27 00:54 K12N 270054Z AUTO 00000KT 14/13 A2982 RMK AO1 SLP098 T01440128
 
KFRG - Farmingdale, New York, USA
Distance from station: ESE 36mi, 58km
Updated: 04/26/2017 8:53pm
Overcast
Overcast
 Wind from NNE
Wind: NNE 5 mph , 7 km/h
Temperature: 61°F , 16°C
Dew Point: 57°F , 14°C
Humidity: 88%
Barometer: 29.82 inHg , 1009.8 hPa
Clouds: Overcast
Visibility: 10 miles , 16 km
Cloud details: Overcast 1400 ft
2017/04/27 00:53 KFRG 270053Z 03004KT 10SM OVC014 16/14 A2982 RMK AO2 SLP096 T01610139
KFWN - Sussex, New Jersey, USA
Distance from station: NW 37mi, 60km
Updated: 04/26/2017 8:53pm
Mostly cloudy
Mostly cloudy
 Wind from calm
Wind: Calm
Temperature: 57°F , 14°C
Dew Point: 55°F , 13°C
Humidity: 94%
Barometer: 29.82 inHg , 1009.8 hPa
Clouds: Mostly cloudy
Visibility: 10 miles , 16 km
Cloud details: Mostly cloudy 2200 ft
2017/04/27 00:53 KFWN 270053Z AUTO 00000KT 10SM BKN022 14/13 A2982 RMK AO2 SLP098 T01390133
 
KSWF - Newburgh/Stewart, New York, USA
Distance from station: 0 45mi, 72km
Updated: 04/26/2017 8:45pm
Mist, Overcast
Mist, Overcast
 Wind from calm
Wind: Calm
Temperature: 59°F , 15°C
Dew Point: 59°F , 15°C
Humidity: 100%
Barometer: 29.83 inHg , 1010.2 hPa
Summary: Mist
Clouds: Overcast
Visibility: 5 miles , 8 km
Cloud details: Mostly cloudy 500 ft
Overcast 900 ft
2017/04/27 00:45 KSWF 270045Z 00000KT 5SM BR BKN005 OVC009 15/15 A2983
KMGJ - Montgomery, New York, USA
Distance from station: NNW 47mi, 75km
Updated: 04/26/2017 8:54pm
Overcast
Overcast
 Wind from calm
Wind: Calm
Temperature: 57°F , 14°C
Dew Point: 55°F , 13°C
Humidity: 94%
Barometer: 29.81 inHg , 1009.5 hPa
Clouds: Overcast
Visibility: 10 miles , 16 km
Cloud details: Overcast 1500 ft
2017/04/27 00:54 KMGJ 270054Z AUTO 00000KT 10SM OVC015 14/13 A2981 RMK AO2 SLP093 T01390128 TSNO
 
KBLM - Belmar/Farmdale, New Jersey, USA
Distance from station: S 47mi, 76km
Updated: 04/26/2017 8:56pm
Mist, Overcast
Mist, Overcast
 Wind from calm
Wind: Calm
Temperature: 59°F , 15°C
Dew Point: 57°F , 14°C
Humidity: 94%
Barometer: 29.83 inHg , 1010.2 hPa
Summary: Mist
Clouds: Overcast
Visibility: 6 miles , 10 km
Cloud details: Overcast 700 ft
2017/04/27 00:56 KBLM 270056Z AUTO 00000KT 6SM BR OVC007 15/14 A2983 RMK AO2 CIG 006V010 SLP106 T01500139
KDXR - Danbury, Connecticut, USA
Distance from station: NE 47mi, 76km
Updated: 04/26/2017 8:53pm
Overcast
Overcast
 Wind from ENE
Wind: ENE 6 mph , 9 km/h
Temperature: 59°F , 15°C
Dew Point: 55°F , 13°C
Humidity: 88%
Barometer: 29.83 inHg , 1010.2 hPa
Clouds: Overcast
Visibility: 10 miles , 16 km
Cloud details: Overcast 1700 ft
2017/04/27 00:53 KDXR 270053Z 07005KT 10SM OVC017 15/13 A2983 RMK AO2 SLP100 T01500133
 
KISP - Islip, New York, USA
Distance from station: E 52mi, 83km
Updated: 04/26/2017 8:56pm
Overcast
Overcast
 Wind from calm
Wind: Calm
Temperature: 61°F , 16°C
Dew Point: 57°F , 14°C
Humidity: 88%
Barometer: 29.81 inHg , 1009.5 hPa
Clouds: Overcast
Visibility: 10 miles , 16 km
Cloud details: Mostly cloudy 1000 ft
Overcast 1800 ft
2017/04/27 00:56 KISP 270056Z 00000KT 10SM BKN010 OVC018 16/14 A2981 RMK AO2 DZE41 SLP095 P0000 T01560139 $
KBDR - Bridgeport, Connecticut, USA
Distance from station: ENE 54mi, 87km
Updated: 04/26/2017 8:52pm
Overcast
Overcast
 Wind from calm
Wind: Calm
Temperature: 57°F , 14°C
Dew Point: 54°F , 12°C
Humidity: 88%
Barometer: 29.82 inHg , 1009.8 hPa
Clouds: Overcast
Visibility: 10 miles , 16 km
Cloud details: Overcast 1600 ft
2017/04/27 00:52 KBDR 270052Z 00000KT 10SM OVC016 14/12 A2982 RMK AO2 SLP099 T01390122
 
KTTN - Trenton, New Jersey, USA
Distance from station: SW 55mi, 88km
Updated: 04/26/2017 8:53pm
Overcast
Overcast
 Wind from SE
Wind: SE 6 mph , 9 km/h
Temperature: 63°F , 17°C
Dew Point: 57°F , 14°C
Humidity: 83%
Barometer: 29.81 inHg , 1009.5 hPa
Clouds: Overcast
Visibility: 10 miles , 16 km
Cloud details: Overcast 1300 ft
2017/04/27 00:53 KTTN 270053Z 13005KT 10SM OVC013 17/14 A2981 RMK AO2 SLP089 T01670144
KPOU - Poughkeepsie, New York, USA
Distance from station: N 55mi, 89km
Updated: 04/26/2017 8:53pm
Overcast
Overcast
 Wind from calm
Wind: Calm
Temperature: 59°F , 15°C
Dew Point: 55°F , 13°C
Humidity: 88%
Barometer: 29.81 inHg , 1009.5 hPa
Clouds: Overcast
Visibility: 10 miles , 16 km
Cloud details: Overcast 2300 ft
2017/04/27 00:53 KPOU 270053Z 00000KT 10SM OVC023 15/13 A2981 RMK AO2 SLP089 T01500133
 
KNEL - Lakehurst Nas, New Jersey, USA
Distance from station: SSW 59mi, 95km
Updated: 04/26/2017 9:00pm
Overcast
Overcast
 Wind from calm
Wind: Calm
Temperature: 63°F , 17°C
Dew Point: 57°F , 14°C
Humidity: 83%
Barometer: 29.82 inHg , 1009.8 hPa
Clouds: Overcast
Visibility: 7 miles , 11 km
Cloud details: Overcast 1500 ft
2017/04/27 01:00 KNEL 270100Z 00000KT 7SM OVC015 17/14 A2982 RMK AO2 SLPNO T01670144 $
KWRI - Wrightst/Mcguire, New Jersey, USA
Distance from station: SSW 63mi, 102km
Updated: 04/26/2017 8:58pm
Overcast
Overcast
 Wind from calm
Wind: Calm
Temperature: 61°F , 16°C
Dew Point: 57°F , 14°C
Humidity: 88%
Barometer: 29.80 inHg , 1009.1 hPa
Clouds: Overcast
Visibility: 10 miles , 16 km
Cloud details: Overcast 1500 ft
2017/04/27 00:58 KWRI 270058Z AUTO 00000KT 10SM OVC015 16/14 A2980 RMK AO2 RAB01E34DZB34E37RAB37E39DZB39E40RAB40E51 SLP091 P0000 T01580142 $
 
KHWV - Shirley, New York, USA
Distance from station: E 64mi, 103km
Updated: 04/26/2017 9:09pm
Overcast
Overcast
 Wind from calm
Wind: Calm
Temperature: 59°F , 15°C
Dew Point: 59°F , 15°C
Humidity: 100%
Barometer: 29.83 inHg , 1010.2 hPa
Clouds: Overcast
Visibility: 8 miles , 13 km
Cloud details: Overcast 400 ft
2017/04/27 01:09 KHWV 270109Z AUTO 00000KT 8SM OVC004 15/15 A2983 RMK AO2 T01500150 TSNO
KMJX - Toms River, New Jersey, USA
Distance from station: S 64mi, 104km
Updated: 04/26/2017 8:56pm
Overcast
Overcast
 Wind from calm
Wind: Calm
Temperature: 59°F , 15°C
Dew Point: 57°F , 14°C
Humidity: 94%
Barometer: 29.83 inHg , 1010.2 hPa
Clouds: Overcast
Visibility: 10 miles , 16 km
Cloud details: Overcast 1200 ft
2017/04/27 00:56 KMJX 270056Z AUTO 00000KT 10SM OVC012 15/14 A2983 RMK AO2 SLP108 T01500139
 
KDYL - Doylestown, Pennsylvania, USA
Distance from station: SW 65mi, 104km
Updated: 04/26/2017 8:54pm
Overcast
Overcast
 Wind from calm
Wind: Calm
Temperature: 61°F , 16°C
Dew Point: 57°F , 14°C
Humidity: 88%
Barometer: 29.81 inHg , 1009.5 hPa
Clouds: Overcast
Visibility: 10 miles , 16 km
Cloud details: Overcast 2300 ft
2017/04/27 00:54 KDYL 270054Z AUTO 00000KT 10SM OVC023 16/14 A2981 RMK AO2 SLP093 T01560144
KOXC - Oxford/Waterbury, Connecticut, USA
Distance from station: NE 65mi, 105km
Updated: 04/26/2017 9:15pm
Overcast
Overcast
 Wind from NE
Wind: NE 3 mph , 6 km/h
Temperature: 57°F , 14°C
Dew Point: 52°F , 11°C
Humidity: 82%
Clouds: Overcast
Visibility: 10 miles , 16 km
Cloud details: Overcast 800 ft
2017/04/27 01:15 KOXC 270115Z AUTO 04003KT 10SM OVC008 14/11
 
KMSV - Monticello, New York, USA
Distance from station: NNW 69mi, 111km
Updated: 04/26/2017 9:15pm
Overcast
Overcast
 Wind from calm
Wind: Calm
Temperature: 55°F , 13°C
Dew Point: 55°F , 13°C
Humidity: 100%
Barometer: 29.85 inHg , 1010.8 hPa
Clouds: Overcast
Visibility: 10 miles , 16 km
Cloud details: Overcast 1000 ft
2017/04/27 01:15 KMSV 270115Z AUTO 00000KT 10SM OVC010 13/13 A2985 RMK AO1
KHVN - New Haven/Tweed, Connecticut, USA
Distance from station: ENE 70mi, 112km
Updated: 04/26/2017 8:53pm
Overcast
Overcast
 Wind from calm
Wind: Calm
Temperature: 54°F , 12°C
Dew Point: 54°F , 12°C
Humidity: 100%
Barometer: 29.83 inHg , 1010.2 hPa
Clouds: Overcast
Visibility: 10 miles , 16 km
Cloud details: Overcast 1400 ft
2017/04/27 00:53 KHVN 270053Z 00000KT 10SM OVC014 12/12 A2983 RMK AO2 SLP099 T01220117
 
KMPO - Mt. Pocono, Pennsylvania, USA
Distance from station: WNW 70mi, 113km
Updated: 04/26/2017 8:53pm
Mostly cloudy
Mostly cloudy
 Wind from SE
Wind: SE 3 mph , 6 km/h
Temperature: 55°F , 13°C
Dew Point: 55°F , 13°C
Humidity: 100%
Barometer: 29.83 inHg , 1010.2 hPa
Clouds: Mostly cloudy
Visibility: 10 miles , 16 km
Cloud details: Partly cloudy 1200 ft
Mostly cloudy 2400 ft
2017/04/27 00:53 KMPO 270053Z AUTO 13003KT 10SM SCT012 BKN024 13/13 A2983 RMK AO2 SLP101 T01280128
KPNE - Philadelphia/Ne, Pennsylvania, USA
Distance from station: SW 72mi, 116km
Updated: 04/26/2017 8:54pm
Overcast
Overcast
 Wind from calm
Wind: Calm
Temperature: 63°F , 17°C
Dew Point: 57°F , 14°C
Humidity: 83%
Barometer: 29.83 inHg , 1010.2 hPa
Clouds: Overcast
Visibility: 10 miles , 16 km
Cloud details: Overcast 1900 ft
2017/04/27 00:54 KPNE 270054Z 00000KT 10SM OVC019 17/14 A2983 RMK AO2 SLP101 T01720139
 
KABE - Allentown, Pennsylvania, USA
Distance from station: W 73mi, 117km
Updated: 04/26/2017 8:51pm
Few Clouds
Few Clouds
 Wind from E
Wind: E 5 mph , 7 km/h
Temperature: 63°F , 17°C
Dew Point: 55°F , 13°C
Humidity: 77%
Barometer: 29.80 inHg , 1009.1 hPa
Clouds: Few Clouds
Visibility: 10 miles , 16 km
Cloud details: Few Clouds 2900 ft
2017/04/27 00:51 KABE 270051Z 10004KT 10SM FEW029 17/13 A2980 RMK AO2 SLP091 T01720128
KUKT - Quakertown Arp, Pennsylvania, USA
Distance from station: WSW 74mi, 119km
Updated: 04/26/2017 8:55pm
Overcast
Overcast
 Wind from calm
Wind: Calm
Temperature: 59°F , 15°C
Dew Point: 57°F , 14°C
Humidity: 94%
Barometer: 29.82 inHg , 1009.8 hPa
Clouds: Overcast
Visibility: 10 miles , 16 km
Cloud details: Overcast 2200 ft
2017/04/27 00:55 KUKT 270055Z AUTO 00000KT 10SM OVC022 15/14 A2982 RMK AO1
 
KVAY - Mount Holly, New Jersey, USA
Distance from station: SSW 75mi, 120km
Updated: 04/26/2017 8:54pm
Overcast
Overcast
 Wind from calm
Wind: Calm
Temperature: 61°F , 16°C
Dew Point: 57°F , 14°C
Humidity: 88%
Barometer: 29.82 inHg , 1009.8 hPa
Clouds: Overcast
Visibility: 10 miles , 16 km
Cloud details: Overcast 1700 ft
2017/04/27 00:54 KVAY 270054Z AUTO 00000KT 10SM OVC017 16/14 A2982 RMK AO2 SLP096 T01610144
KXLL - Allentown Queen, Pennsylvania, USA
Distance from station: WSW 76mi, 122km
Updated: 04/26/2017 8:55pm
Partly cloudy
Partly cloudy
 Wind from SSE
Wind: SSE 5 mph , 7 km/h
Temperature: 63°F , 17°C
Dew Point: 57°F , 14°C
Humidity: 83%
Barometer: 29.82 inHg , 1009.8 hPa
Clouds: Partly cloudy
Visibility: 10 miles , 16 km
Cloud details: Partly cloudy 2700 ft
2017/04/27 00:55 KXLL 270055Z AUTO 15004KT 10SM SCT027 17/14 A2982 RMK AO2
 
KFOK - Westhampton Beac, New York, USA
Distance from station: E 77mi, 124km
Updated: 04/26/2017 9:03pm
Mist, Overcast
Mist, Overcast
 Wind from calm
Wind: Calm
Temperature: 54°F , 12°C
Dew Point: 52°F , 11°C
Humidity: 94%
Barometer: 29.84 inHg , 1010.5 hPa
Summary: Mist
Clouds: Overcast
Visibility: 1 1/2 miles , 2 km
Cloud details: Overcast 300 ft
2017/04/27 01:03 KFOK 270103Z 00000KT 1 1/2SM BR OVC003 12/11 A2984 RMK AO2 T01220111
KLOM - Philly Wings F, Pennsylvania, USA
Distance from station: SW 79mi, 128km
Updated: 04/26/2017 8:55pm
Overcast
Overcast
 Wind from calm
Wind: Calm
Temperature: 61°F , 16°C
Dew Point: 55°F , 13°C
Humidity: 83%
Barometer: 29.83 inHg , 1010.2 hPa
Clouds: Overcast
Visibility: 10 miles , 16 km
Cloud details: Overcast 1800 ft
2017/04/27 00:55 KLOM 270055Z AUTO 00000KT 10SM OVC018 16/13 A2983 RMK AO1
 
KMMK - Meriden, Connecticut, USA
Distance from station: NE 80mi, 128km
Updated: 04/26/2017 8:53pm
Light rain, Overcast
Light rain, Overcast
 Wind from NW
Wind: NW 5 mph , 7 km/h
Temperature: 61°F , 16°C
Dew Point: 55°F , 13°C
Humidity: 83%
Barometer: 29.83 inHg , 1010.2 hPa
Summary: Light rain
Clouds: Overcast
Visibility: 8 miles , 13 km
Cloud details: Overcast 1200 ft
2017/04/27 00:53 KMMK 270053Z AUTO 32004KT 8SM -RA OVC012 16/13 A2983 RMK AO2 RAB42 SLP100 P0000 T01610133 TSNO
KPTW - Pottstown, Pennsylvania, USA
Distance from station: WSW 88mi, 141km
Updated: 04/26/2017 8:54pm
Clear
Clear
 Wind from calm
Wind: Calm
Temperature: 57°F , 14°C
Dew Point: 55°F , 13°C
Humidity: 94%
Barometer: 29.82 inHg , 1009.8 hPa
Clouds: Clear
Visibility: 10 miles , 16 km
2017/04/27 00:54 KPTW 270054Z AUTO 00000KT 10SM CLR 14/13 A2982 RMK AO2 SLP094 T01390128
 
KSNC - Chester, Connecticut, USA
Distance from station: ENE 90mi, 146km
Updated: 04/26/2017 8:55pm
Mist, Overcast
Mist, Overcast
 Wind from calm
Wind: Calm
Temperature: 59°F , 15°C
Dew Point: 59°F , 15°C
Humidity: 100%
Barometer: 29.83 inHg , 1010.2 hPa
Summary: Mist
Clouds: Overcast
Visibility: 2 1/2 miles , 2 km
Cloud details: Overcast 200 ft
2017/04/27 00:55 KSNC 270055Z AUTO 00000KT 2 1/2SM BR OVC002 15/15 A2983 RMK AO2
KPHL - Philadelphia, Pennsylvania, USA
Distance from station: SW 91mi, 146km
Updated: 04/26/2017 8:54pm
Overcast
Overcast
 Wind from S
Wind: S 6 mph , 9 km/h
Temperature: 63°F , 17°C
Dew Point: 57°F , 14°C
Humidity: 83%
Barometer: 29.82 inHg , 1009.8 hPa
Clouds: Overcast
Visibility: 10 miles , 16 km
Cloud details: Overcast 2100 ft
2017/04/27 00:54 KPHL 270054Z 19005KT 10SM OVC021 17/14 A2982 RMK AO2 SLP098 T01670139 $
 
KAVP - Avoca/Wilkes B., Pennsylvania, USA
Distance from station: WNW 91mi, 147km
Updated: 04/26/2017 8:54pm
Partly cloudy
Partly cloudy
 Wind from calm
Wind: Calm
Temperature: 68°F , 20°C
Dew Point: 55°F , 13°C
Humidity: 64%
Barometer: 29.78 inHg , 1008.5 hPa
Clouds: Partly cloudy
Visibility: 10 miles , 16 km
Cloud details: Partly cloudy 3800 ft
2017/04/27 00:54 KAVP 270054Z 00000KT 10SM SCT038 20/13 A2978 RMK AO2 SLP078 T02000133
KHFD - Hartford/Brainar, Connecticut, USA
Distance from station: NE 96mi, 155km
Updated: 04/26/2017 9:03pm
Mist, Overcast
Mist, Overcast
 Wind from N
Wind: N 5 mph , 7 km/h
Temperature: 59°F , 15°C
Dew Point: 57°F , 14°C
Humidity: 94%
Barometer: 29.83 inHg , 1010.2 hPa
Summary: Mist
Clouds: Overcast
Visibility: 6 miles , 10 km
Cloud details: Overcast 900 ft
2017/04/27 01:03 KHFD 270103Z 35004KT 6SM BR OVC009 15/14 A2983 RMK AO2 CIG 005V013 T01500139
 
KHTO - East Hampton, New York, USA
Distance from station: E 96mi, 155km
Updated: 04/26/2017 8:55pm
Mist, Overcast
Mist, Overcast
 Wind from calm
Wind: Calm
Temperature: 54°F , 12°C
Dew Point: 52°F , 11°C
Humidity: 94%
Barometer: 29.82 inHg , 1009.8 hPa
Summary: Mist
Clouds: Overcast
Visibility: 3/4 mile , 5 km
Cloud details: Overcast 400 ft
2017/04/27 00:55 KHTO 270055Z AUTO 00000KT 3/4SM BR OVC004 12/11 A2982 RMK AO2 T01150114
KACY - Atlantic City, New Jersey, USA
Distance from station: SSW 99mi, 160km
Updated: 04/26/2017 8:54pm
Overcast
Overcast
 Wind from S
Wind: S 5 mph , 7 km/h
Temperature: 57°F , 14°C
Dew Point: 54°F , 12°C
Humidity: 88%
Barometer: 29.83 inHg , 1010.2 hPa
Clouds: Overcast
Visibility: 8 miles , 13 km
Cloud details: Overcast 1600 ft
2017/04/27 00:54 KACY 270054Z 17004KT 8SM OVC016 14/12 A2983 RMK AO2 SLP100 T01440122